createdAt,value
2019-02-19T00:00:41.037Z,4.05
2019-02-19T00:01:41.181Z,4.16
2019-02-19T00:02:41.344Z,4.06
2019-02-19T00:03:43.494Z,3.95
2019-02-19T00:04:41.665Z,3.98
2019-02-19T00:05:41.845Z,3.96
2019-02-19T00:06:42.036Z,3.94
2019-02-19T00:07:42.253Z,3.95
2019-02-19T00:08:42.349Z,4.02
2019-02-19T00:09:42.576Z,3.98
2019-02-19T00:10:42.702Z,3.92
2019-02-19T00:11:42.893Z,4.01
2019-02-19T00:12:43.043Z,3.98
2019-02-19T00:13:43.239Z,4.02
2019-02-19T00:14:43.438Z,3.87
2019-02-19T00:15:43.562Z,3.96
2019-02-19T00:16:43.734Z,3.94
2019-02-19T00:17:43.900Z,3.98
2019-02-19T00:18:44.073Z,3.95
2019-02-19T00:19:44.259Z,3.91
2019-02-19T00:20:44.486Z,3.84
2019-02-19T00:21:46.550Z,3.84
2019-02-19T00:22:44.845Z,3.86
2019-02-19T00:23:45.093Z,3.87
2019-02-19T00:24:46.968Z,3.95
2019-02-19T00:25:45.283Z,3.88
2019-02-19T00:26:45.462Z,3.84
2019-02-19T00:27:45.880Z,3.81
2019-02-19T00:28:45.796Z,3.73
2019-02-19T00:29:45.961Z,3.68
2019-02-19T00:30:46.135Z,3.73
2019-02-19T00:31:46.308Z,3.73
2019-02-19T00:32:46.475Z,3.70
2019-02-19T00:33:46.630Z,3.55
2019-02-19T00:34:46.794Z,3.65
2019-02-19T00:35:46.965Z,3.68
2019-02-19T00:36:47.153Z,3.74
2019-02-19T00:37:47.297Z,3.66
2019-02-19T00:38:49.524Z,3.73
2019-02-19T00:39:47.638Z,3.70
2019-02-19T00:40:47.813Z,3.66
2019-02-19T00:41:47.989Z,3.65
2019-02-19T00:42:48.147Z,3.70
2019-02-19T00:43:48.321Z,3.58
2019-02-19T00:44:49.501Z,3.59
2019-02-19T00:45:48.635Z,3.58
2019-02-19T00:46:48.811Z,3.55
2019-02-19T00:47:49.022Z,3.55
2019-02-19T00:48:49.156Z,3.55
2019-02-19T00:49:49.320Z,3.59
2019-02-19T00:50:49.486Z,3.62
2019-02-19T00:51:49.648Z,3.63
2019-02-19T00:52:51.616Z,3.50
2019-02-19T00:53:50.015Z,3.48
2019-02-19T00:54:52.929Z,3.37
2019-02-19T00:55:50.351Z,3.26
2019-02-19T00:56:50.516Z,3.31
2019-02-19T00:57:50.687Z,3.31
2019-02-19T00:58:50.871Z,3.28
2019-02-19T00:59:51.038Z,3.22
2019-02-19T01:00:51.200Z,3.41
2019-02-19T01:01:51.393Z,3.41
2019-02-19T01:02:51.538Z,3.32
2019-02-19T01:03:51.698Z,3.41
2019-02-19T01:04:51.862Z,3.45
2019-02-19T01:05:52.019Z,3.47
2019-02-19T01:06:52.180Z,3.48
2019-02-19T01:07:52.335Z,3.53
2019-02-19T01:08:52.496Z,3.58
2019-02-19T01:09:52.710Z,3.62
2019-02-19T01:10:52.887Z,3.58
2019-02-19T01:11:55.008Z,3.56
2019-02-19T01:12:53.262Z,3.73
2019-02-19T01:13:53.454Z,3.78
2019-02-19T01:14:53.682Z,3.70
2019-02-19T01:15:53.759Z,3.60
2019-02-19T01:16:53.922Z,3.62
2019-02-19T01:17:54.106Z,3.66
2019-02-19T01:18:54.279Z,3.76
2019-02-19T01:19:54.445Z,3.80
2019-02-19T01:20:54.615Z,3.81
2019-02-19T01:21:54.802Z,3.81
2019-02-19T01:22:54.945Z,3.73
2019-02-19T01:23:55.137Z,3.92
2019-02-19T01:24:55.280Z,3.84
2019-02-19T01:25:55.468Z,3.77
2019-02-19T01:26:55.656Z,3.73
2019-02-19T01:27:55.811Z,3.74
2019-02-19T01:28:55.994Z,3.73
2019-02-19T01:29:56.209Z,3.58
2019-02-19T01:30:56.339Z,3.58
2019-02-19T01:31:56.504Z,3.62
2019-02-19T01:32:56.705Z,3.76
2019-02-19T01:33:56.860Z,3.69
2019-02-19T01:34:56.950Z,3.73
2019-02-19T01:35:57.129Z,3.77
2019-02-19T01:36:57.285Z,3.77
2019-02-19T01:37:57.442Z,3.66
2019-02-19T01:38:57.614Z,3.70
2019-02-19T01:39:57.807Z,3.78
2019-02-19T01:40:57.932Z,3.80
2019-02-19T01:41:59.986Z,3.68
2019-02-19T01:42:58.305Z,3.70
2019-02-19T01:43:58.552Z,3.69
2019-02-19T01:45:00.473Z,3.56
2019-02-19T01:45:58.955Z,3.60
2019-02-19T01:46:59.006Z,3.47
2019-02-19T01:47:59.164Z,3.56
2019-02-19T01:48:59.366Z,3.56
2019-02-19T01:50:00.547Z,3.55
2019-02-19T01:50:59.593Z,3.50
2019-02-19T01:51:59.753Z,3.32
2019-02-19T01:52:59.946Z,3.31
2019-02-19T01:54:00.189Z,3.28
2019-02-19T01:55:00.283Z,3.22
2019-02-19T01:56:00.453Z,3.11
2019-02-19T01:57:00.598Z,3.08
2019-02-19T01:58:00.798Z,3.03
2019-02-19T01:59:00.950Z,3.05
2019-02-19T02:00:01.134Z,3.14
2019-02-19T02:01:01.286Z,3.07
2019-02-19T02:02:03.585Z,3.16
2019-02-19T02:03:01.640Z,3.13
2019-02-19T02:04:01.804Z,3.04
2019-02-19T02:05:01.948Z,3.14
2019-02-19T02:06:02.143Z,3.01
2019-02-19T02:07:04.595Z,3.04
2019-02-19T02:08:02.487Z,3.04
2019-02-19T02:09:02.636Z,3.03
2019-02-19T02:10:04.525Z,3.10
2019-02-19T02:11:03.015Z,3.21
2019-02-19T02:12:03.200Z,3.13
2019-02-19T02:13:03.447Z,3.01
2019-02-19T02:14:03.484Z,3.03
2019-02-19T02:15:03.645Z,2.97
2019-02-19T02:16:03.817Z,2.98
2019-02-19T02:17:04.076Z,3.05
2019-02-19T02:18:04.144Z,3.16
2019-02-19T02:19:04.323Z,2.98
2019-02-19T02:20:04.476Z,3.05
2019-02-19T02:21:04.644Z,3.01
2019-02-19T02:22:04.834Z,3.00
2019-02-19T02:23:04.984Z,3.03
2019-02-19T02:24:05.159Z,3.10
2019-02-19T02:25:05.317Z,3.16
2019-02-19T02:26:05.559Z,3.13
2019-02-19T02:27:05.657Z,3.08
2019-02-19T02:28:06.263Z,3.13
2019-02-19T02:29:05.931Z,3.08
2019-02-19T02:30:06.095Z,3.00
2019-02-19T02:31:06.255Z,3.03
2019-02-19T02:32:06.430Z,3.19
2019-02-19T02:33:06.617Z,3.03
2019-02-19T02:34:07.009Z,3.05
2019-02-19T02:35:06.878Z,3.07
2019-02-19T02:36:07.071Z,3.14
2019-02-19T02:37:07.193Z,3.18
2019-02-19T02:38:07.368Z,3.11
2019-02-19T02:39:07.543Z,3.11
2019-02-19T02:40:07.738Z,3.03
2019-02-19T02:41:07.871Z,3.10
2019-02-19T02:42:08.029Z,3.08
2019-02-19T02:43:08.238Z,3.10
2019-02-19T02:44:08.395Z,3.25
2019-02-19T02:45:08.562Z,3.16
2019-02-19T02:46:08.767Z,3.28
2019-02-19T02:47:11.449Z,3.08
2019-02-19T02:48:10.312Z,3.19
2019-02-19T02:49:09.285Z,3.22
2019-02-19T02:50:09.454Z,3.19
2019-02-19T02:51:10.385Z,3.29
2019-02-19T02:52:09.825Z,3.22
2019-02-19T02:53:10.016Z,3.16
2019-02-19T02:54:10.150Z,3.19
2019-02-19T02:55:10.312Z,3.16
2019-02-19T02:56:10.481Z,3.25
2019-02-19T02:57:10.651Z,3.07
2019-02-19T02:58:10.821Z,3.01
2019-02-19T02:59:11.035Z,3.05
2019-02-19T03:00:11.132Z,2.95
2019-02-19T03:01:11.313Z,2.85
2019-02-19T03:02:11.479Z,2.86
2019-02-19T03:03:11.692Z,2.90
2019-02-19T03:04:13.506Z,3.00
2019-02-19T03:05:11.985Z,2.95
2019-02-19T03:06:12.180Z,2.89
2019-02-19T03:07:12.326Z,2.92
2019-02-19T03:08:12.519Z,2.97
2019-02-19T03:09:12.649Z,2.97
2019-02-19T03:10:12.820Z,2.85
2019-02-19T03:11:12.983Z,2.85
2019-02-19T03:12:13.298Z,2.77
2019-02-19T03:13:13.271Z,2.93
2019-02-19T03:14:13.455Z,2.87
2019-02-19T03:15:13.605Z,2.72
2019-02-19T03:16:13.765Z,2.80
2019-02-19T03:17:13.930Z,2.82
2019-02-19T03:18:14.095Z,2.89
2019-02-19T03:19:14.262Z,2.86
2019-02-19T03:20:14.443Z,2.95
2019-02-19T03:21:14.628Z,2.72
2019-02-19T03:22:14.848Z,2.80
2019-02-19T03:23:14.931Z,2.62
2019-02-19T03:24:15.072Z,2.65
2019-02-19T03:25:15.274Z,2.50
2019-02-19T03:26:15.399Z,2.61
2019-02-19T03:27:15.557Z,2.67
2019-02-19T03:28:15.713Z,2.61
2019-02-19T03:29:15.900Z,2.60
2019-02-19T03:30:16.106Z,2.62
2019-02-19T03:31:16.282Z,2.62
2019-02-19T03:32:16.491Z,2.60
2019-02-19T03:33:18.417Z,2.75
2019-02-19T03:34:16.713Z,2.79
2019-02-19T03:35:16.875Z,2.80
2019-02-19T03:36:17.042Z,2.83
2019-02-19T03:37:17.209Z,2.80
2019-02-19T03:38:17.360Z,2.77
2019-02-19T03:39:17.522Z,2.87
2019-02-19T03:40:17.703Z,2.80
2019-02-19T03:41:17.907Z,2.93
2019-02-19T03:42:18.039Z,2.82
2019-02-19T03:43:18.204Z,2.85
2019-02-19T03:44:18.376Z,2.89
2019-02-19T03:45:18.564Z,3.04
2019-02-19T03:46:20.472Z,2.97
2019-02-19T03:47:18.880Z,2.97
2019-02-19T03:48:19.043Z,2.97
2019-02-19T03:49:19.216Z,3.01
2019-02-19T03:50:19.356Z,3.00
2019-02-19T03:51:19.520Z,3.04
2019-02-19T03:52:19.691Z,3.05
2019-02-19T03:53:19.860Z,3.05
2019-02-19T03:54:20.065Z,3.11
2019-02-19T03:55:20.236Z,3.11
2019-02-19T03:56:20.434Z,3.05
2019-02-19T03:57:20.606Z,3.04
2019-02-19T03:58:20.748Z,3.05
2019-02-19T03:59:22.091Z,2.98
2019-02-19T04:00:21.002Z,2.97
2019-02-19T04:01:21.218Z,2.89
2019-02-19T04:02:22.225Z,2.93
2019-02-19T04:03:21.542Z,2.86
2019-02-19T04:04:21.707Z,2.92
2019-02-19T04:05:21.879Z,2.83
2019-02-19T04:06:22.054Z,2.90
2019-02-19T04:07:24.034Z,2.92
2019-02-19T04:08:22.391Z,2.82
2019-02-19T04:09:22.592Z,2.87
2019-02-19T04:10:24.560Z,2.83
2019-02-19T04:11:23.815Z,2.87
2019-02-19T04:12:28.762Z,2.75
2019-02-19T04:13:23.229Z,2.82
2019-02-19T04:14:27.129Z,2.79
2019-02-19T04:15:29.177Z,2.87
2019-02-19T04:16:23.611Z,2.87
2019-02-19T04:17:28.803Z,2.80
2019-02-19T04:18:29.729Z,2.74
2019-02-19T04:19:29.135Z,2.74
2019-02-19T04:20:26.978Z,2.67
2019-02-19T04:21:28.526Z,2.74
2019-02-19T04:22:27.190Z,2.77
2019-02-19T04:23:26.942Z,2.77
2019-02-19T04:24:24.781Z,2.75
2019-02-19T04:25:24.901Z,2.80
2019-02-19T04:26:26.993Z,2.74
2019-02-19T04:27:26.965Z,2.80
2019-02-19T04:28:26.931Z,2.87
2019-02-19T04:29:25.515Z,2.89
2019-02-19T04:30:25.676Z,2.89
2019-02-19T04:31:28.448Z,2.87
2019-02-19T04:32:27.752Z,2.86
2019-02-19T04:33:26.055Z,2.85
2019-02-19T04:34:26.278Z,2.82
2019-02-19T04:35:28.106Z,2.97
2019-02-19T04:36:28.569Z,2.97
2019-02-19T04:37:29.795Z,2.97
2019-02-19T04:38:28.598Z,3.04
2019-02-19T04:39:27.157Z,3.00
2019-02-19T04:40:29.048Z,2.98
2019-02-19T04:41:27.537Z,2.97
2019-02-19T04:42:27.740Z,3.03
2019-02-19T04:43:31.705Z,2.97
2019-02-19T04:44:30.626Z,2.83
2019-02-19T04:45:31.704Z,2.89
2019-02-19T04:46:31.808Z,2.75
2019-02-19T04:47:33.196Z,2.75
2019-02-19T04:48:32.351Z,2.85
2019-02-19T04:49:32.739Z,3.00
2019-02-19T04:50:31.413Z,2.82
2019-02-19T04:51:31.853Z,2.97
2019-02-19T04:52:30.954Z,2.92
2019-02-19T04:53:29.682Z,2.87
2019-02-19T04:54:31.602Z,2.86
2019-02-19T04:55:30.447Z,3.03
2019-02-19T04:56:29.927Z,2.86
2019-02-19T04:57:30.080Z,2.92
2019-02-19T04:58:30.309Z,2.83
2019-02-19T04:59:30.421Z,2.77
2019-02-19T05:00:30.584Z,2.83
2019-02-19T05:01:30.757Z,2.79
2019-02-19T05:02:30.903Z,2.80
2019-02-19T05:03:31.075Z,2.69
2019-02-19T05:04:31.246Z,2.89
2019-02-19T05:05:31.446Z,2.83
2019-02-19T05:06:33.419Z,2.77
2019-02-19T05:07:33.515Z,2.82
2019-02-19T05:08:33.540Z,2.72
2019-02-19T05:09:32.095Z,2.97
2019-02-19T05:10:32.244Z,2.93
2019-02-19T05:11:33.456Z,2.87
2019-02-19T05:12:35.629Z,2.89
2019-02-19T05:13:32.772Z,2.90
2019-02-19T05:14:34.000Z,2.90
2019-02-19T05:15:33.139Z,2.90
2019-02-19T05:16:40.705Z,2.90
2019-02-19T05:17:33.357Z,3.05
2019-02-19T05:18:33.547Z,2.92
2019-02-19T05:19:36.482Z,3.04
2019-02-19T05:20:36.463Z,2.93
2019-02-19T05:21:34.083Z,2.98
2019-02-19T05:22:36.064Z,3.00
2019-02-19T05:23:34.443Z,2.93
2019-02-19T05:24:34.614Z,2.89
2019-02-19T05:25:36.182Z,2.90
2019-02-19T05:26:34.983Z,3.00
2019-02-19T05:27:36.453Z,2.93
2019-02-19T05:28:35.289Z,2.97
2019-02-19T05:29:35.426Z,3.05
2019-02-19T05:30:35.608Z,2.97
2019-02-19T05:31:35.798Z,3.00
2019-02-19T05:32:35.949Z,2.93
2019-02-19T05:33:36.173Z,2.87
2019-02-19T05:34:36.347Z,2.86
2019-02-19T05:35:38.789Z,2.86
2019-02-19T05:36:38.432Z,2.87
2019-02-19T05:37:38.538Z,3.01
2019-02-19T05:38:39.989Z,2.89
2019-02-19T05:39:37.198Z,3.04
2019-02-19T05:40:37.363Z,3.07
2019-02-19T05:41:40.244Z,3.07
2019-02-19T05:42:56.124Z,3.03
2019-02-19T05:43:40.913Z,3.10
2019-02-19T05:45:01.687Z,2.98
2019-02-19T05:45:38.107Z,3.08
2019-02-19T05:46:49.616Z,3.04
2019-02-19T05:47:39.835Z,3.00
2019-02-19T05:48:41.461Z,2.93
2019-02-19T05:49:40.662Z,2.92
2019-02-19T05:50:38.948Z,3.07
2019-02-19T05:51:39.193Z,2.93
2019-02-19T05:52:39.223Z,3.07
2019-02-19T05:53:39.399Z,2.86
2019-02-19T05:54:40.644Z,2.89
2019-02-19T05:55:43.548Z,2.82
2019-02-19T05:56:43.924Z,2.82
2019-02-19T05:57:44.768Z,2.86
2019-02-19T05:59:08.148Z,2.75
2019-02-19T05:59:44.350Z,2.80
2019-02-19T06:00:46.253Z,2.92
2019-02-19T06:01:52.025Z,2.83
2019-02-19T06:02:42.057Z,2.85
2019-02-19T06:03:43.412Z,2.79
2019-02-19T06:04:50.609Z,2.86
2019-02-19T06:05:44.194Z,2.86
2019-02-19T06:06:43.366Z,2.89
2019-02-19T06:07:42.754Z,2.74
2019-02-19T06:08:42.779Z,2.82
2019-02-19T06:09:44.789Z,2.85
2019-02-19T06:10:44.205Z,2.82
2019-02-19T06:11:42.314Z,2.86
2019-02-19T06:12:50.640Z,2.90
2019-02-19T06:13:50.038Z,2.95
2019-02-19T06:14:42.945Z,2.93
2019-02-19T06:15:45.107Z,3.04
2019-02-19T06:16:43.213Z,3.00
2019-02-19T06:17:45.054Z,3.01
2019-02-19T06:18:45.507Z,2.98
2019-02-19T06:23:30.461Z,3.10
2019-02-19T06:23:52.775Z,3.04
2019-02-19T06:24:53.501Z,3.10
2019-02-19T06:25:51.953Z,3.08
2019-02-19T06:26:53.137Z,3.19
2019-02-19T06:27:54.883Z,3.11
2019-02-19T06:28:54.204Z,3.11
2019-02-19T06:29:53.721Z,3.19
2019-02-19T06:30:53.572Z,3.13
2019-02-19T06:35:04.046Z,3.28
2019-02-19T06:35:58.044Z,3.16
2019-02-19T06:36:59.224Z,3.25
2019-02-19T06:38:01.695Z,3.28
2019-02-19T06:39:22.836Z,3.22
2019-02-19T06:39:58.209Z,3.32
2019-02-19T06:41:03.786Z,3.26
2019-02-19T06:42:10.190Z,3.29
2019-02-19T06:42:58.579Z,3.31
2019-02-19T06:43:58.766Z,3.26
2019-02-19T06:44:58.753Z,3.29
2019-02-19T06:45:58.923Z,3.32
2019-02-19T06:47:06.926Z,3.31
2019-02-19T06:47:59.283Z,3.40
2019-02-19T06:48:59.420Z,3.40
2019-02-19T06:49:59.516Z,3.34
2019-02-19T06:50:59.745Z,3.41
2019-02-19T06:55:38.039Z,3.66
2019-02-19T06:57:24.276Z,3.66
2019-02-19T07:01:55.378Z,3.83
2019-02-19T07:02:30.279Z,3.70
2019-02-19T07:03:51.092Z,3.66
2019-02-19T07:04:28.743Z,3.84
2019-02-19T07:05:26.312Z,3.91
2019-02-19T07:06:26.550Z,3.86
2019-02-19T07:07:26.776Z,3.84
2019-02-19T07:08:26.846Z,3.84
2019-02-19T07:09:32.850Z,3.81
2019-02-19T07:10:27.347Z,3.78
2019-02-19T07:11:29.228Z,3.94
2019-02-19T07:12:27.533Z,3.76
2019-02-19T07:13:27.709Z,3.59
2019-02-19T07:14:27.900Z,3.70
2019-02-19T07:15:28.143Z,3.77
2019-02-19T07:16:28.194Z,3.81
2019-02-19T07:17:28.376Z,3.68
2019-02-19T07:18:28.805Z,3.92
2019-02-19T07:19:29.123Z,3.88
2019-02-19T07:20:28.881Z,3.88
2019-02-19T07:21:29.374Z,3.99
2019-02-19T07:22:31.279Z,3.96
2019-02-19T07:23:31.810Z,4.08
2019-02-19T07:24:45.752Z,4.05
2019-02-19T07:25:32.364Z,4.05
2019-02-19T07:26:52.797Z,4.08
2019-02-19T07:27:33.741Z,4.14
2019-02-19T07:28:33.179Z,4.20
2019-02-19T07:29:36.370Z,4.20
2019-02-19T07:30:43.512Z,4.08
2019-02-19T07:31:32.259Z,4.14
2019-02-19T07:32:30.855Z,4.30
2019-02-19T07:33:31.573Z,4.10
2019-02-19T07:34:31.368Z,4.12
2019-02-19T07:35:31.399Z,4.12
2019-02-19T07:36:31.515Z,4.16
2019-02-19T07:37:31.671Z,4.05
2019-02-19T07:38:33.599Z,4.14
2019-02-19T07:39:31.938Z,4.08
2019-02-19T07:40:32.146Z,4.08
2019-02-19T07:41:32.356Z,4.02
2019-02-19T07:42:32.449Z,4.06
2019-02-19T07:43:32.688Z,4.19
2019-02-19T07:44:33.360Z,4.06
2019-02-19T07:45:33.074Z,4.19
2019-02-19T07:46:33.423Z,4.06
2019-02-19T07:47:33.288Z,3.98
2019-02-19T07:48:42.196Z,4.01
2019-02-19T07:49:35.231Z,4.08
2019-02-19T07:50:33.973Z,4.05
2019-02-19T07:51:33.825Z,4.02
2019-02-19T07:52:33.944Z,3.92
2019-02-19T07:53:38.178Z,3.98
2019-02-19T07:54:34.898Z,4.02
2019-02-19T07:55:34.745Z,4.02
2019-02-19T07:56:34.621Z,3.94
2019-02-19T07:57:51.401Z,3.96
2019-02-19T07:58:50.249Z,4.10
2019-02-19T07:59:34.817Z,4.22
2019-02-19T08:00:35.077Z,4.24
2019-02-19T08:01:35.171Z,4.28
2019-02-19T08:02:37.461Z,4.26
2019-02-19T08:03:58.391Z,4.22
2019-02-19T08:04:37.607Z,4.30
2019-02-19T08:05:39.755Z,4.30
2019-02-19T08:06:36.180Z,4.26
2019-02-19T08:07:36.297Z,4.23
2019-02-19T08:08:36.397Z,4.38
2019-02-19T08:09:36.354Z,4.32
2019-02-19T08:10:36.573Z,4.30
2019-02-19T08:11:36.676Z,4.24
2019-02-19T08:12:37.158Z,4.38
2019-02-19T08:13:37.118Z,4.28
2019-02-19T08:14:37.201Z,4.40
2019-02-19T08:15:37.406Z,4.37
2019-02-19T08:16:37.863Z,4.37
2019-02-19T08:17:37.725Z,4.35
2019-02-19T08:18:38.070Z,4.42
2019-02-19T08:19:38.187Z,4.38
2019-02-19T08:20:38.335Z,4.48
2019-02-19T08:21:38.602Z,4.35
2019-02-19T08:22:38.805Z,4.26
2019-02-19T08:23:39.587Z,4.34
2019-02-19T08:24:39.450Z,4.24
2019-02-19T08:25:39.921Z,4.26
2019-02-19T08:26:39.575Z,4.28
2019-02-19T08:27:42.383Z,4.42
2019-02-19T08:28:43.895Z,4.38
2019-02-19T08:29:40.716Z,4.34
2019-02-19T08:30:41.279Z,4.42
2019-02-19T08:31:40.828Z,4.50
2019-02-19T08:32:41.345Z,4.55
2019-02-19T08:33:43.513Z,4.58
2019-02-19T08:34:42.315Z,4.49
2019-02-19T08:35:42.328Z,4.56
2019-02-19T08:36:41.453Z,4.55
2019-02-19T08:37:41.372Z,4.67
2019-02-19T08:38:43.015Z,4.60
2019-02-19T08:39:41.623Z,4.59
2019-02-19T08:40:42.144Z,4.71
2019-02-19T08:41:42.018Z,4.80
2019-02-19T08:42:42.151Z,4.70
2019-02-19T08:43:44.534Z,4.77
2019-02-19T08:44:48.777Z,4.89
2019-02-19T08:45:44.635Z,4.71
2019-02-19T08:46:43.049Z,4.77
2019-02-19T08:47:46.242Z,4.73
2019-02-19T08:48:46.996Z,4.86
2019-02-19T08:49:43.479Z,4.84
2019-02-19T08:50:43.661Z,4.87
2019-02-19T08:51:43.572Z,4.92
2019-02-19T08:52:43.749Z,4.87
2019-02-19T08:53:45.113Z,4.89
2019-02-19T08:54:43.925Z,4.89
2019-02-19T08:55:44.251Z,4.94
2019-02-19T08:56:44.445Z,4.92
2019-02-19T08:57:44.566Z,4.94
2019-02-19T08:58:44.767Z,4.92
2019-02-19T08:59:59.447Z,4.87
2019-02-19T09:00:46.366Z,4.99
2019-02-19T09:01:52.777Z,4.92
2019-02-19T09:02:45.238Z,4.92
2019-02-19T09:03:45.760Z,4.97
2019-02-19T09:04:46.598Z,4.93
2019-02-19T09:05:47.761Z,4.93
2019-02-19T09:06:51.902Z,4.99
2019-02-19T09:08:20.788Z,5.02
2019-02-19T09:08:47.810Z,5.02
2019-02-19T09:09:46.312Z,5.00
2019-02-19T09:10:46.863Z,5.05
2019-02-19T09:12:11.594Z,5.05
2019-02-19T09:13:39.933Z,5.20
2019-02-19T09:14:20.525Z,5.11
2019-02-19T09:15:35.552Z,5.30
2019-02-19T09:16:19.868Z,5.21
2019-02-19T09:17:26.867Z,5.04
2019-02-19T09:18:48.749Z,4.97
2019-02-19T09:19:19.200Z,5.14
2019-02-19T09:20:21.401Z,5.23
2019-02-19T09:21:27.220Z,5.23
2019-02-19T09:22:42.991Z,5.29
2019-02-19T09:23:22.010Z,5.35
2019-02-19T09:24:20.215Z,5.41
2019-02-19T09:25:24.145Z,5.44
2019-02-19T09:26:20.649Z,5.47
2019-02-19T09:27:22.438Z,5.44
2019-02-19T09:28:24.253Z,5.30
2019-02-19T09:29:47.636Z,5.46
2019-02-19T09:46:03.954Z,6.16
2019-02-19T09:46:54.228Z,6.17
2019-02-19T09:50:36.193Z,6.24
2019-02-19T09:51:34.450Z,6.20
2019-02-19T09:52:34.870Z,6.22
2019-02-19T09:53:34.628Z,6.12
2019-02-19T09:55:01.772Z,6.19
2019-02-19T09:55:38.516Z,6.26
2019-02-19T09:56:39.475Z,6.19
2019-02-19T09:57:35.455Z,6.33
2019-02-19T09:58:37.262Z,6.36
2019-02-19T09:59:35.757Z,6.46
2019-02-19T10:00:38.349Z,6.48
2019-02-19T10:01:40.523Z,6.52
2019-02-19T10:02:37.666Z,6.60
2019-02-19T10:03:36.448Z,6.56
2019-02-19T10:04:40.335Z,6.60
2019-02-19T10:05:38.898Z,6.62
2019-02-19T10:08:13.391Z,6.75
2019-02-19T10:09:11.761Z,6.85
2019-02-19T10:10:10.436Z,6.79
2019-02-19T10:11:10.235Z,6.88
2019-02-19T10:12:09.967Z,6.92
2019-02-19T10:13:10.094Z,6.97
2019-02-19T10:14:18.581Z,6.95
2019-02-19T10:15:11.285Z,7.00
2019-02-19T10:16:11.992Z,7.10
2019-02-19T10:17:11.413Z,7.18
2019-02-19T10:18:11.833Z,7.11
2019-02-19T10:19:11.790Z,7.15
2019-02-19T10:20:13.482Z,7.10
2019-02-19T10:21:13.994Z,7.14
2019-02-19T10:22:15.559Z,7.15
2019-02-19T10:23:28.166Z,7.15
2019-02-19T10:24:12.290Z,7.17
2019-02-19T10:25:13.638Z,7.18
2019-02-19T10:26:13.239Z,7.21
2019-02-19T10:29:12.355Z,7.32
2019-02-19T10:29:47.433Z,7.40
2019-02-19T10:30:46.966Z,7.33
2019-02-19T10:31:47.218Z,7.43
2019-02-19T10:32:47.352Z,7.50
2019-02-19T10:33:46.610Z,7.54
2019-02-19T10:34:52.702Z,7.60
2019-02-19T10:35:48.290Z,7.67
2019-02-19T10:36:46.791Z,7.77
2019-02-19T10:37:48.366Z,7.72
2019-02-19T10:38:48.188Z,7.75
2019-02-19T10:39:48.740Z,7.82
2019-02-19T10:41:13.189Z,7.79
2019-02-19T10:43:50.892Z,7.76
2019-02-19T10:44:21.825Z,7.82
2019-02-19T10:45:20.742Z,7.82
2019-02-19T10:46:20.673Z,7.80
2019-02-19T10:47:21.039Z,7.77
2019-02-19T10:48:21.474Z,7.73
2019-02-19T10:49:50.266Z,7.77
2019-02-19T10:50:22.495Z,7.75
2019-02-19T10:51:23.156Z,7.67
2019-02-19T10:52:23.620Z,7.72
2019-02-19T10:53:23.263Z,7.66
2019-02-19T10:54:23.031Z,7.72
2019-02-19T10:55:23.839Z,7.76
2019-02-19T10:56:23.179Z,7.82
2019-02-19T10:57:31.352Z,7.82
2019-02-19T10:58:26.145Z,7.95
2019-02-19T10:59:24.141Z,7.95
2019-02-19T11:00:23.294Z,7.98
2019-02-19T11:01:33.856Z,8.03
2019-02-19T11:02:26.496Z,8.00
2019-02-19T11:03:28.673Z,8.10
2019-02-19T11:04:27.925Z,8.15
2019-02-19T11:05:29.048Z,8.26
2019-02-19T11:06:23.767Z,8.20
2019-02-19T11:07:23.863Z,8.23
2019-02-19T11:08:23.965Z,8.28
2019-02-19T11:09:24.155Z,8.30
2019-02-19T11:10:24.343Z,8.27
2019-02-19T11:11:24.587Z,8.31
2019-02-19T11:12:24.730Z,8.36
2019-02-19T11:13:24.826Z,8.42
2019-02-19T11:14:28.975Z,8.38
2019-02-19T11:15:25.092Z,8.28
2019-02-19T11:16:25.332Z,8.33
2019-02-19T11:17:25.779Z,8.37
2019-02-19T11:19:01.615Z,8.51
2019-02-19T11:19:34.572Z,8.45
2019-02-19T11:20:34.142Z,8.69
2019-02-19T11:21:36.684Z,8.70
2019-02-19T11:22:29.430Z,8.73
2019-02-19T11:23:49.448Z,8.82
2019-02-19T11:26:38.572Z,9.13
2019-02-19T11:27:24.908Z,9.23
2019-02-19T11:28:00.861Z,9.32
2019-02-19T11:29:21.884Z,9.46
2019-02-19T11:34:42.458Z,9.72
2019-02-19T11:35:37.887Z,10.02
2019-02-19T11:37:01.477Z,10.13
2019-02-19T11:39:20.146Z,10.44
2019-02-19T11:40:14.184Z,10.48
2019-02-19T11:41:13.467Z,10.42
2019-02-19T11:42:16.440Z,10.53
2019-02-19T11:43:12.559Z,10.48
2019-02-19T11:44:11.979Z,10.61
2019-02-19T11:45:10.353Z,10.63
2019-02-19T11:46:26.469Z,10.93
2019-02-19T11:47:26.306Z,11.02
2019-02-19T11:48:19.204Z,11.14
2019-02-19T11:49:11.390Z,11.26
2019-02-19T11:50:13.759Z,11.90
2019-02-19T11:51:11.312Z,11.84
2019-02-19T11:52:11.197Z,11.90
2019-02-19T11:53:12.116Z,11.88
2019-02-19T11:54:11.882Z,11.75
2019-02-19T11:55:12.086Z,11.60
2019-02-19T11:56:13.368Z,11.60
2019-02-19T11:57:13.160Z,11.52
2019-02-19T11:58:14.261Z,11.59
2019-02-19T11:59:12.097Z,11.87
2019-02-19T12:00:15.580Z,13.08
2019-02-19T12:01:13.874Z,13.97
2019-02-19T12:02:15.614Z,13.95
2019-02-19T12:03:15.977Z,13.65
2019-02-19T12:04:16.121Z,13.39
2019-02-19T12:05:17.107Z,13.22
2019-02-19T12:06:13.828Z,13.03
2019-02-19T12:07:15.083Z,12.61
2019-02-19T12:08:14.556Z,12.42
2019-02-19T12:09:14.154Z,12.18
2019-02-19T12:10:14.099Z,11.99
2019-02-19T12:11:15.574Z,12.02
2019-02-19T12:12:16.567Z,11.97
2019-02-19T12:13:15.046Z,12.00
2019-02-19T12:14:15.300Z,11.83
2019-02-19T12:15:15.465Z,11.70
2019-02-19T12:16:15.494Z,11.86
2019-02-19T12:17:15.388Z,11.88
2019-02-19T12:18:16.478Z,11.87
2019-02-19T12:19:18.145Z,11.81
2019-02-19T12:20:18.077Z,11.65
2019-02-19T12:21:19.936Z,11.68
2019-02-19T12:22:18.147Z,11.66
2019-02-19T12:23:23.114Z,11.75
2019-02-19T12:24:17.560Z,11.88
2019-02-19T12:25:16.141Z,11.87
2019-02-19T12:26:19.067Z,12.06
2019-02-19T12:27:19.229Z,11.97
2019-02-19T12:28:18.820Z,11.88
2019-02-19T12:29:17.030Z,11.86
2019-02-19T12:30:18.454Z,11.86
2019-02-19T12:31:22.160Z,11.87
2019-02-19T12:32:19.578Z,11.83
2019-02-19T12:33:17.680Z,12.07
2019-02-19T12:34:17.779Z,12.04
2019-02-19T12:35:17.888Z,12.07
2019-02-19T12:36:18.698Z,11.88
2019-02-19T12:37:18.238Z,11.87
2019-02-19T12:38:18.257Z,11.90
2019-02-19T12:39:18.880Z,11.87
2019-02-19T12:40:20.709Z,11.77
2019-02-19T12:41:20.045Z,11.80
2019-02-19T12:42:19.650Z,11.97
2019-02-19T12:43:20.707Z,11.83
2019-02-19T12:44:24.027Z,12.29
2019-02-19T12:45:19.990Z,12.18
2019-02-19T12:46:20.747Z,13.00
2019-02-19T12:47:20.218Z,12.68
2019-02-19T12:48:20.802Z,12.73
2019-02-19T12:49:39.152Z,12.50
2019-02-19T12:50:22.149Z,12.45
2019-02-19T12:51:26.246Z,12.35
2019-02-19T12:52:20.422Z,12.60
2019-02-19T12:53:21.149Z,12.31
2019-02-19T12:54:21.517Z,12.27
2019-02-19T12:55:21.749Z,12.06
2019-02-19T12:56:24.350Z,12.12
2019-02-19T12:57:21.441Z,12.02
2019-02-19T12:58:22.963Z,12.07
2019-02-19T12:59:21.700Z,12.12
2019-02-19T13:00:22.671Z,11.97
2019-02-19T13:01:22.676Z,11.87
2019-02-19T13:02:22.498Z,11.91
2019-02-19T13:03:23.308Z,11.80
2019-02-19T13:04:22.640Z,12.02
2019-02-19T13:05:23.467Z,12.03
2019-02-19T13:06:23.245Z,12.04
2019-02-19T13:07:23.969Z,12.39
2019-02-19T13:08:24.018Z,12.61
2019-02-19T13:09:27.816Z,12.80
2019-02-19T13:10:25.074Z,12.86
2019-02-19T13:11:23.711Z,12.85
2019-02-19T13:12:44.655Z,12.54
2019-02-19T13:13:23.996Z,12.49
2019-02-19T13:14:24.190Z,12.57
2019-02-19T13:15:24.113Z,12.67
2019-02-19T13:18:01.357Z,12.46
2019-02-19T13:19:03.816Z,12.40
2019-02-19T13:20:00.886Z,12.36
2019-02-19T13:23:10.093Z,12.37
2019-02-19T13:23:41.318Z,12.31
2019-02-19T13:25:36.879Z,12.17
2019-02-19T13:26:12.990Z,12.24
2019-02-19T13:27:16.110Z,12.28
2019-02-19T13:28:15.319Z,12.27
2019-02-19T13:29:15.956Z,12.24
2019-02-19T13:30:14.020Z,12.29
2019-02-19T13:31:17.924Z,12.35
2019-02-19T13:32:46.992Z,12.35
2019-02-19T13:38:10.817Z,12.39
2019-02-19T13:39:11.682Z,12.49
2019-02-19T13:40:14.364Z,12.37
2019-02-19T13:41:08.677Z,12.29
2019-02-19T13:42:08.839Z,12.20
2019-02-19T13:43:08.950Z,12.27
2019-02-19T13:44:09.125Z,12.17
2019-02-19T13:45:09.205Z,12.31
2019-02-19T13:46:09.406Z,12.25
2019-02-19T13:47:09.983Z,12.35
2019-02-19T13:48:09.882Z,12.25
2019-02-19T13:49:12.208Z,12.15
2019-02-19T13:50:10.219Z,12.06
2019-02-19T13:51:10.619Z,12.09
2019-02-19T13:52:10.564Z,12.07
2019-02-19T13:53:10.658Z,12.03
2019-02-19T13:54:10.955Z,11.95
2019-02-19T13:55:11.073Z,12.07
2019-02-19T13:56:11.164Z,11.97
2019-02-19T13:57:11.371Z,11.84
2019-02-19T13:58:11.681Z,12.02
2019-02-19T13:59:11.758Z,12.09
2019-02-19T14:00:11.982Z,12.07
2019-02-19T14:01:12.167Z,12.10
2019-02-19T14:02:12.375Z,12.21
2019-02-19T14:03:12.711Z,12.18
2019-02-19T14:04:12.764Z,12.09
2019-02-19T14:05:13.486Z,12.21
2019-02-19T14:06:14.803Z,12.35
2019-02-19T14:07:13.218Z,12.24
2019-02-19T14:08:14.985Z,12.21
2019-02-19T14:09:13.473Z,12.17